Time;durP1;ratioP1;P1;durP2;ratioP2;P2;SDS_P1;SDS_P2;PMS_P1;PMS_P2;Temp;Humidity;BMP_temperature;BMP_pressure;BME280_temperature;BME280_humidity;BME280_pressure;Samples;Min_cycle;Max_cycle;Signal;HPM_P1;HPM_P2
2023/08/25 00:00:24;;;;;;;5.20;3.03;;;23.40;99.90;;;;;;5065229;28;20341;-31
2023/08/25 00:02:51;;;;;;;4.70;3.03;;;23.40;99.90;;;;;;5046354;28;20200;-32
2023/08/25 00:05:21;;;;;;;6.43;3.10;;;23.40;99.90;;;;;;5045528;28;20758;-24
2023/08/25 00:07:49;;;;;;;4.63;3.17;;;23.30;99.90;;;;;;5038335;28;20227;-32
2023/08/25 00:10:19;;;;;;;6.30;3.42;;;23.30;99.90;;;;;;5039697;28;20649;-31
2023/08/25 00:12:47;;;;;;;6.00;3.13;;;23.30;99.90;;;;;;5045322;28;20284;-24
2023/08/25 00:15:14;;;;;;;7.13;3.70;;;23.30;99.90;;;;;;5066260;28;20300;-24
2023/08/25 00:17:44;;;;;;;8.48;3.60;;;23.30;99.90;;;;;;5049681;28;20618;-24
2023/08/25 00:20:15;;;;;;;4.65;3.58;;;23.30;99.90;;;;;;5045307;28;20669;-24
2023/08/25 00:22:42;;;;;;;3.80;3.40;;;23.20;99.90;;;;;;5067265;28;20253;-24
2023/08/25 00:25:12;;;;;;;5.28;3.53;;;23.20;99.90;;;;;;5065849;28;20216;-24
2023/08/25 00:27:40;;;;;;;4.40;3.25;;;23.20;99.90;;;;;;5050363;28;20212;-24
2023/08/25 00:30:11;;;;;;;5.15;3.35;;;23.20;99.90;;;;;;5057492;28;20201;-24
2023/08/25 00:32:43;;;;;;;4.80;3.47;;;23.20;99.90;;;;;;5055445;28;20717;-24
2023/08/25 00:35:11;;;;;;;5.93;3.30;;;23.10;99.90;;;;;;5059621;28;20347;-24
2023/08/25 00:37:38;;;;;;;4.25;3.10;;;23.10;99.90;;;;;;5068954;28;20216;-24
2023/08/25 00:40:08;;;;;;;4.00;3.20;;;23.10;99.90;;;;;;5062410;28;20195;-24
2023/08/25 00:42:38;;;;;;;5.78;3.50;;;23.10;99.90;;;;;;5032913;28;20258;-24
2023/08/25 00:45:08;;;;;;;4.10;3.38;;;23.00;99.90;;;;;;5067140;28;20242;-24
2023/08/25 00:47:36;;;;;;;5.78;3.70;;;23.00;99.90;;;;;;5061712;28;20207;-24
2023/08/25 00:50:06;;;;;;;6.75;3.40;;;23.00;99.90;;;;;;5051810;28;20523;-24
2023/08/25 00:52:33;;;;;;;5.85;3.75;;;23.00;99.90;;;;;;5052374;28;20203;-24
2023/08/25 00:55:05;;;;;;;7.72;4.25;;;23.00;99.90;;;;;;5051542;28;20252;-25
2023/08/25 00:57:33;;;;;;;7.82;3.88;;;23.00;99.90;;;;;;5065092;28;20639;-24
2023/08/25 01:00:00;;;;;;;5.00;3.63;;;23.00;99.90;;;;;;5048799;28;20193;-24
2023/08/25 01:02:29;;;;;;;6.70;3.22;;;23.00;99.90;;;;;;5031178;28;20270;-24
2023/08/25 01:04:57;;;;;;;4.75;3.90;;;23.00;99.90;;;;;;5052051;28;20215;-24
2023/08/25 01:07:29;;;;;;;3.58;2.78;;;23.00;99.90;;;;;;5039243;28;20208;-24
2023/08/25 01:09:56;;;;;;;5.93;3.88;;;23.00;99.90;;;;;;5051180;28;20207;-24
2023/08/25 01:12:58;;;;;;;4.85;3.28;;;23.00;99.90;;;;;;5050784;28;20222;-24
2023/08/25 01:15:32;;;;;;;4.15;3.33;;;23.00;99.90;;;;;;5043697;28;20266;-24
2023/08/25 01:18:23;;;;;;;5.25;3.72;;;22.90;99.90;;;;;;5047530;28;20239;-24
2023/08/25 01:20:52;;;;;;;3.97;3.55;;;22.90;99.90;;;;;;5054455;28;20203;-24
2023/08/25 01:23:32;;;;;;;5.63;3.55;;;22.90;99.90;;;;;;5054420;28;20295;-24
2023/08/25 01:26:07;;;;;;;5.88;3.60;;;22.90;99.90;;;;;;5030062;28;20204;-24
2023/08/25 01:28:38;;;;;;;7.88;3.17;;;22.80;99.90;;;;;;5071142;28;20204;-24
2023/08/25 01:31:05;;;;;;;5.28;3.33;;;22.90;99.90;;;;;;5068725;28;20224;-24
2023/08/25 01:33:33;;;;;;;5.32;3.75;;;22.80;99.90;;;;;;5057028;28;20222;-24
2023/08/25 01:36:21;;;;;;;5.80;3.72;;;22.80;99.90;;;;;;5058339;28;20249;-24
2023/08/25 01:39:10;;;;;;;5.50;3.78;;;22.80;99.90;;;;;;5051525;28;20200;-24
2023/08/25 01:41:46;;;;;;;5.25;3.50;;;22.80;99.90;;;;;;5050294;28;20221;-24
2023/08/25 01:44:18;;;;;;;6.25;3.55;;;22.80;99.90;;;;;;5065734;28;20705;-23
2023/08/25 01:46:49;;;;;;;4.72;3.47;;;22.70;99.90;;;;;;5057069;28;20220;-24
2023/08/25 01:49:18;;;;;;;7.30;3.72;;;22.70;99.90;;;;;;5043970;28;20321;-24
2023/08/25 01:51:46;;;;;;;6.55;3.65;;;22.70;99.90;;;;;;5047859;28;20743;-23
2023/08/25 01:54:13;;;;;;;6.97;4.00;;;22.70;99.90;;;;;;5029520;28;20215;-23
2023/08/25 01:56:41;;;;;;;7.25;3.40;;;22.70;99.90;;;;;;5066170;28;20200;-24
2023/08/25 01:59:10;;;;;;;5.35;3.63;;;22.70;99.90;;;;;;5049248;28;20203;-24
2023/08/25 02:01:37;;;;;;;5.30;3.70;;;22.60;99.90;;;;;;5064835;28;20207;-24
2023/08/25 02:04:05;;;;;;;6.55;4.15;;;22.60;99.90;;;;;;5038730;28;20227;-24
2023/08/25 02:06:35;;;;;;;6.57;3.83;;;22.60;99.90;;;;;;5042840;28;20204;-24
2023/08/25 02:09:05;;;;;;;4.55;3.72;;;22.60;99.90;;;;;;5059887;28;20611;-24
2023/08/25 02:11:33;;;;;;;4.07;3.15;;;22.60;99.90;;;;;;5051451;28;20218;-24
2023/08/25 02:14:05;;;;;;;5.85;3.22;;;22.50;99.90;;;;;;5033986;28;20591;-24
2023/08/25 02:16:32;;;;;;;8.00;3.97;;;22.50;99.90;;;;;;5046359;28;20227;-24
2023/08/25 02:19:02;;;;;;;6.15;3.40;;;22.50;99.90;;;;;;5029961;28;20201;-24
2023/08/25 02:21:29;;;;;;;5.03;3.55;;;22.50;99.90;;;;;;5035719;28;20216;-24
2023/08/25 02:23:58;;;;;;;6.10;3.45;;;22.50;99.90;;;;;;5045636;28;20206;-23
2023/08/25 02:26:28;;;;;;;4.45;3.30;;;22.50;99.90;;;;;;5067028;28;20688;-24
2023/08/25 02:28:55;;;;;;;4.55;3.13;;;22.50;99.90;;;;;;5041084;28;20220;-25
2023/08/25 02:31:25;;;;;;;5.43;3.33;;;22.50;99.90;;;;;;5030431;28;20314;-24
2023/08/25 02:33:52;;;;;;;4.78;3.33;;;22.50;99.90;;;;;;5061401;28;20199;-24
2023/08/25 02:36:22;;;;;;;7.28;3.20;;;22.50;99.90;;;;;;5045965;28;20235;-24
2023/08/25 02:38:49;;;;;;;5.47;3.22;;;22.50;99.90;;;;;;5031692;28;20207;-24
2023/08/25 02:41:18;;;;;;;5.18;3.00;;;22.40;99.90;;;;;;5048448;28;20208;-24
2023/08/25 02:43:48;;;;;;;4.53;3.20;;;22.40;99.90;;;;;;5063460;28;20235;-31
2023/08/25 02:46:18;;;;;;;6.32;3.03;;;22.40;99.90;;;;;;5054455;28;20310;-31
2023/08/25 02:48:45;;;;;;;5.28;2.97;;;22.40;99.90;;;;;;5070904;28;20207;-32
2023/08/25 02:51:12;;;;;;;5.95;3.10;;;22.40;99.90;;;;;;5065134;28;20209;-32
2023/08/25 02:53:42;;;;;;;6.75;3.20;;;22.30;99.90;;;;;;5068577;28;20634;-32
2023/08/25 02:56:09;;;;;;;4.18;2.95;;;22.30;99.90;;;;;;5067052;28;20326;-25
2023/08/25 02:58:41;;;;;;;4.65;3.78;;;22.30;99.90;;;;;;5048840;28;20519;-24
2023/08/25 03:01:14;;;;;;;5.40;3.13;;;22.30;99.90;;;;;;5050517;28;20207;-24
2023/08/25 03:03:44;;;;;;;4.07;3.30;;;22.30;99.90;;;;;;5059316;28;20767;-24
2023/08/25 03:06:13;;;;;;;8.25;3.13;;;22.30;99.90;;;;;;5048909;28;20203;-24
2023/08/25 03:08:45;;;;;;;4.45;3.53;;;22.30;99.90;;;;;;5067376;28;20196;-24
2023/08/25 03:11:15;;;;;;;4.93;3.08;;;22.30;99.90;;;;;;5049477;28;20227;-24
2023/08/25 03:13:42;;;;;;;4.95;3.30;;;22.30;99.90;;;;;;5048985;28;20614;-24
2023/08/25 03:16:09;;;;;;;4.57;3.08;;;22.30;99.90;;;;;;5047275;28;20228;-24
2023/08/25 03:18:40;;;;;;;4.65;2.53;;;22.30;99.90;;;;;;5028657;28;20223;-24
2023/08/25 03:21:07;;;;;;;7.22;3.90;;;22.30;99.90;;;;;;5037447;28;20222;-24
2023/08/25 03:23:35;;;;;;;6.13;3.55;;;22.30;99.90;;;;;;5048881;28;20208;-24
2023/08/25 03:26:03;;;;;;;5.85;3.15;;;22.30;99.90;;;;;;5043213;28;20865;-24
2023/08/25 03:28:33;;;;;;;5.70;2.83;;;22.30;99.90;;;;;;5063324;28;20896;-24
2023/08/25 03:31:02;;;;;;;4.60;2.95;;;22.30;99.90;;;;;;5056927;28;20239;-24
2023/08/25 03:33:30;;;;;;;4.15;3.08;;;22.40;99.90;;;;;;5046731;28;20741;-24
2023/08/25 03:35:57;;;;;;;5.85;2.88;;;22.40;99.90;;;;;;5048098;28;20224;-24
2023/08/25 03:38:29;;;;;;;6.32;2.60;;;22.40;99.90;;;;;;5048535;28;20204;-24
2023/08/25 03:41:01;;;;;;;5.90;3.28;;;22.40;99.90;;;;;;5046945;28;20655;-24
2023/08/25 03:43:35;;;;;;;3.40;2.80;;;22.40;99.90;;;;;;5040787;28;20202;-24
2023/08/25 03:46:07;;;;;;;6.40;2.88;;;22.40;99.90;;;;;;5064211;28;20243;-24
2023/08/25 03:48:38;;;;;;;4.85;3.10;;;22.40;99.90;;;;;;5051711;28;20222;-24
2023/08/25 03:51:08;;;;;;;4.35;3.33;;;22.40;99.90;;;;;;5034533;28;20263;-24
2023/08/25 03:53:35;;;;;;;4.38;3.15;;;22.40;99.90;;;;;;5061192;28;20635;-24
2023/08/25 03:56:03;;;;;;;4.47;3.15;;;22.40;99.90;;;;;;5048712;28;20595;-31
2023/08/25 03:58:30;;;;;;;4.53;2.88;;;22.40;99.90;;;;;;5067295;28;20207;-31
2023/08/25 04:00:59;;;;;;;5.63;2.83;;;22.40;99.90;;;;;;5064861;28;20207;-31
2023/08/25 04:03:26;;;;;;;4.57;2.50;;;22.40;99.90;;;;;;5046705;28;20277;-31
2023/08/25 04:05:53;;;;;;;4.85;3.15;;;22.40;99.90;;;;;;5049295;28;20220;-31
2023/08/25 04:08:21;;;;;;;4.60;2.70;;;22.40;99.90;;;;;;5049300;28;20813;-31
2023/08/25 04:10:50;;;;;;;4.90;2.83;;;22.40;99.90;;;;;;5065909;28;20214;-31
2023/08/25 04:13:18;;;;;;;6.63;3.05;;;22.40;99.90;;;;;;5053950;28;20639;-31
2023/08/25 04:15:56;;;;;;;7.45;3.25;;;22.40;99.90;;;;;;5046160;28;20231;-31
2023/08/25 04:18:27;;;;;;;7.90;3.35;;;22.40;99.90;;;;;;5071664;28;20760;-31
2023/08/25 04:21:01;;;;;;;7.15;3.40;;;22.40;99.90;;;;;;5070852;28;20290;-31
2023/08/25 04:23:28;;;;;;;5.20;3.40;;;22.30;99.90;;;;;;5070889;28;20207;-31
2023/08/25 04:25:56;;;;;;;3.17;2.67;;;22.30;99.90;;;;;;5060658;28;20199;-32
2023/08/25 04:28:25;;;;;;;5.63;3.33;;;22.40;99.90;;;;;;5072068;28;20203;-31
2023/08/25 04:30:59;;;;;;;5.63;3.70;;;22.30;99.90;;;;;;5055823;28;20677;-31
2023/08/25 04:33:28;;;;;;;7.63;2.95;;;22.30;99.90;;;;;;5040897;28;20213;-31
2023/08/25 04:35:56;;;;;;;4.75;2.88;;;22.30;99.90;;;;;;5044076;28;20219;-32
2023/08/25 04:38:23;;;;;;;4.57;3.33;;;22.40;99.90;;;;;;5040954;28;20204;-31
2023/08/25 04:40:57;;;;;;;5.13;2.83;;;22.30;99.90;;;;;;5057048;28;20702;-31
2023/08/25 04:43:24;;;;;;;5.00;3.00;;;22.40;99.90;;;;;;5049197;28;20748;-31
2023/08/25 04:45:56;;;;;;;6.30;2.88;;;22.30;99.90;;;;;;5032730;28;20238;-31
2023/08/25 04:48:24;;;;;;;5.72;3.40;;;22.40;99.90;;;;;;5071116;28;20234;-31
2023/08/25 04:50:53;;;;;;;6.55;3.08;;;22.40;99.90;;;;;;5056632;28;20306;-31
2023/08/25 04:53:20;;;;;;;6.15;3.13;;;22.40;99.90;;;;;;5065895;28;20223;-31
2023/08/25 04:55:48;;;;;;;7.32;3.10;;;22.40;99.90;;;;;;5050395;28;20716;-31
2023/08/25 04:58:18;;;;;;;5.38;2.95;;;22.40;99.90;;;;;;5039791;28;20216;-31
2023/08/25 05:00:55;;;;;;;8.00;2.80;;;22.40;99.90;;;;;;5059370;28;20231;-31
2023/08/25 05:03:22;;;;;;;7.57;3.10;;;22.40;99.90;;;;;;5061988;28;20227;-31
2023/08/25 05:05:49;;;;;;;6.78;3.42;;;22.50;99.90;;;;;;5055414;28;20788;-31
2023/08/25 05:08:20;;;;;;;5.68;3.33;;;22.40;99.90;;;;;;5071812;28;20207;-31
2023/08/25 05:10:49;;;;;;;6.60;3.40;;;22.50;99.90;;;;;;5051291;28;20215;-31
2023/08/25 05:13:16;;;;;;;6.70;3.30;;;22.50;99.90;;;;;;5073153;28;20285;-31
2023/08/25 05:15:46;;;;;;;7.43;3.00;;;22.50;99.90;;;;;;5070819;28;20693;-31
2023/08/25 05:18:16;;;;;;;6.30;3.75;;;22.50;99.90;;;;;;5071003;28;20268;-31
2023/08/25 05:20:48;;;;;;;5.72;3.03;;;22.60;99.90;;;;;;5071112;28;20211;-31
2023/08/25 05:23:15;;;;;;;4.20;3.00;;;22.60;99.90;;;;;;5032426;28;20281;-32
2023/08/25 05:25:42;;;;;;;5.82;2.92;;;22.60;99.90;;;;;;5051403;28;20216;-31
2023/08/25 05:28:14;;;;;;;6.63;3.28;;;22.60;99.90;;;;;;5041384;28;20207;-31
2023/08/25 05:30:50;;;;;;;8.38;3.65;;;22.60;99.90;;;;;;5041170;28;20446;-32
2023/08/25 05:33:22;;;;;;;6.25;3.30;;;22.70;99.90;;;;;;5055039;28;20280;-31
2023/08/25 05:35:54;;;;;;;6.68;3.30;;;22.70;99.90;;;;;;5058844;28;20322;-31
2023/08/25 05:38:23;;;;;;;7.32;3.53;;;22.70;99.90;;;;;;5058108;28;20948;-32
2023/08/25 05:40:53;;;;;;;7.50;3.55;;;22.70;99.90;;;;;;5049831;28;20422;-31
2023/08/25 05:43:20;;;;;;;8.80;3.60;;;22.70;99.90;;;;;;5051515;28;20216;-31
2023/08/25 05:45:49;;;;;;;5.80;3.55;;;22.70;99.90;;;;;;5051714;28;20765;-31
2023/08/25 05:48:17;;;;;;;9.32;3.50;;;22.70;99.90;;;;;;5047428;28;20291;-32
2023/08/25 05:50:44;;;;;;;7.57;3.60;;;22.70;99.90;;;;;;5057927;28;20212;-31
2023/08/25 05:53:13;;;;;;;7.70;4.20;;;22.80;99.90;;;;;;5050114;28;20195;-30
2023/08/25 05:55:41;;;;;;;9.25;4.10;;;22.70;99.90;;;;;;5034582;28;20402;-30
2023/08/25 05:58:08;;;;;;;9.70;4.07;;;22.70;99.90;;;;;;5047703;28;20208;-30
2023/08/25 06:00:38;;;;;;;11.90;4.43;;;22.80;99.90;;;;;;5062375;28;20630;-28
2023/08/25 06:03:05;;;;;;;7.97;3.83;;;22.80;99.90;;;;;;5049506;28;20318;-27
2023/08/25 06:05:35;;;;;;;8.68;4.40;;;22.80;99.90;;;;;;5047459;28;21099;-28
2023/08/25 06:08:04;;;;;;;9.23;4.82;;;22.80;99.90;;;;;;5052120;28;20219;-27
2023/08/25 06:10:35;;;;;;;10.63;4.68;;;22.80;99.90;;;;;;5031660;28;20208;-27
2023/08/25 06:13:02;;;;;;;8.82;4.50;;;22.80;99.90;;;;;;5064304;28;20203;-26
2023/08/25 06:15:29;;;;;;;10.52;4.97;;;22.80;99.90;;;;;;5029519;28;20212;-27
2023/08/25 06:17:57;;;;;;;9.68;4.68;;;22.80;99.90;;;;;;5060789;28;20604;-26
2023/08/25 06:20:26;;;;;;;8.30;4.22;;;22.80;99.90;;;;;;5057082;28;20200;-27
2023/08/25 06:22:58;;;;;;;7.43;4.25;;;22.80;99.90;;;;;;5063648;28;20215;-27
2023/08/25 06:25:28;;;;;;;7.07;3.50;;;22.70;99.90;;;;;;5035546;28;20220;-27
2023/08/25 06:27:59;;;;;;;10.38;4.70;;;22.70;99.90;;;;;;5052848;28;20205;-26
2023/08/25 06:30:26;;;;;;;10.95;4.82;;;22.70;99.90;;;;;;5060949;28;20625;-27
2023/08/25 06:32:54;;;;;;;8.40;4.30;;;22.70;99.90;;;;;;5063294;28;20567;-26
2023/08/25 06:35:23;;;;;;;7.00;4.05;;;22.70;99.90;;;;;;5068040;28;20211;-27
2023/08/25 06:37:51;;;;;;;5.20;4.00;;;22.70;99.90;;;;;;5055338;28;20239;-27
2023/08/25 06:40:23;;;;;;;5.38;3.83;;;22.70;99.90;;;;;;5048215;28;20207;-28
2023/08/25 06:42:55;;;;;;;7.45;4.20;;;22.60;99.90;;;;;;5052720;28;20215;-27
2023/08/25 06:45:27;;;;;;;6.75;4.30;;;22.60;99.90;;;;;;5064991;28;20238;-28
2023/08/25 06:47:57;;;;;;;6.95;4.47;;;22.60;99.90;;;;;;5044808;28;20204;-27
2023/08/25 06:50:30;;;;;;;8.32;4.30;;;22.60;99.90;;;;;;5068198;28;20280;-27
2023/08/25 06:53:00;;;;;;;7.30;4.45;;;22.60;99.90;;;;;;5047783;28;20192;-28
2023/08/25 06:55:29;;;;;;;7.85;4.07;;;22.60;99.90;;;;;;5049885;28;20199;-28
2023/08/25 06:57:56;;;;;;;10.55;4.70;;;22.70;99.90;;;;;;5038064;28;20228;-28
2023/08/25 07:00:26;;;;;;;8.02;4.88;;;22.60;99.90;;;;;;5062301;28;20219;-28
2023/08/25 07:02:55;;;;;;;9.27;4.82;;;22.70;99.90;;;;;;5048766;28;20223;-28
2023/08/25 07:05:23;;;;;;;9.02;4.80;;;22.70;99.90;;;;;;5059092;28;20206;-28
2023/08/25 07:07:53;;;;;;;6.47;4.35;;;22.70;99.90;;;;;;5047274;28;20219;-28
2023/08/25 07:10:23;;;;;;;6.03;4.75;;;22.70;99.90;;;;;;5066277;28;20308;-27
2023/08/25 07:12:51;;;;;;;6.53;4.43;;;22.70;99.90;;;;;;5067632;28;20191;-27
2023/08/25 07:15:18;;;;;;;10.95;5.28;;;22.80;99.90;;;;;;5064117;28;20215;-22
2023/08/25 07:17:47;;;;;;;6.28;4.60;;;22.80;99.90;;;;;;5034663;28;20714;-22
2023/08/25 07:20:15;;;;;;;8.15;5.20;;;22.80;99.90;;;;;;5025596;28;20194;-22
2023/08/25 07:22:45;;;;;;;8.20;4.80;;;22.80;99.90;;;;;;5025286;28;20192;-22
2023/08/25 07:25:13;;;;;;;6.75;4.90;;;22.80;99.90;;;;;;5048621;28;20216;-22
2023/08/25 07:27:40;;;;;;;6.88;5.03;;;22.80;99.90;;;;;;5047166;28;20373;-23
2023/08/25 07:30:09;;;;;;;10.23;5.35;;;22.80;99.90;;;;;;5054175;28;20206;-22
2023/08/25 07:32:39;;;;;;;8.63;5.50;;;22.90;99.90;;;;;;5046620;28;20285;-22
2023/08/25 07:35:08;;;;;;;9.32;5.03;;;22.90;99.90;;;;;;5039824;28;20249;-23
2023/08/25 07:37:38;;;;;;;9.52;4.97;;;22.90;99.90;;;;;;5046506;28;20227;-23
2023/08/25 07:40:10;;;;;;;8.00;5.05;;;22.90;99.90;;;;;;5053543;28;20207;-22
2023/08/25 07:42:43;;;;;;;8.98;5.30;;;22.90;99.90;;;;;;5061655;28;20222;-22
2023/08/25 07:45:12;;;;;;;10.02;4.80;;;22.90;99.90;;;;;;5066740;28;20325;-22
2023/08/25 07:47:42;;;;;;;7.72;5.00;;;22.90;99.90;;;;;;5027202;28;20288;-22
2023/08/25 07:50:10;;;;;;;7.88;5.18;;;22.90;99.90;;;;;;5078420;28;20235;-23
2023/08/25 07:52:37;;;;;;;11.55;5.95;;;22.90;99.90;;;;;;5032837;28;20208;-22
2023/08/25 07:55:05;;;;;;;10.27;5.43;;;22.90;99.90;;;;;;5037087;28;20707;-22
2023/08/25 07:57:32;;;;;;;8.68;5.18;;;22.90;99.90;;;;;;5057359;28;20461;-22
2023/08/25 08:00:04;;;;;;;10.13;5.63;;;22.90;99.90;;;;;;5054494;28;20251;-22
2023/08/25 08:02:34;;;;;;;8.48;5.40;;;22.90;99.90;;;;;;5055037;28;20256;-22
2023/08/25 08:05:01;;;;;;;8.32;5.30;;;22.90;99.90;;;;;;5044258;28;20692;-23
2023/08/25 08:07:31;;;;;;;7.75;5.05;;;22.90;99.90;;;;;;5040286;28;20214;-22
2023/08/25 08:10:03;;;;;;;7.63;4.78;;;22.90;99.90;;;;;;5047622;28;20215;-22
2023/08/25 08:12:33;;;;;;;7.28;4.80;;;22.90;99.90;;;;;;5032571;28;20208;-24
2023/08/25 08:15:00;;;;;;;7.53;4.97;;;22.90;99.90;;;;;;5039614;28;20197;-22
2023/08/25 08:17:30;;;;;;;8.63;5.47;;;22.90;99.90;;;;;;5052324;28;20228;-21
2023/08/25 08:20:00;;;;;;;10.30;5.20;;;22.90;99.90;;;;;;5048922;28;20276;-22
2023/08/25 08:22:27;;;;;;;6.95;4.88;;;22.90;99.90;;;;;;5038414;28;20206;-21
2023/08/25 08:24:54;;;;;;;7.40;5.53;;;22.90;99.90;;;;;;5050038;28;20764;-22
2023/08/25 08:27:21;;;;;;;7.45;5.10;;;22.90;99.90;;;;;;5026444;28;20223;-21
2023/08/25 08:29:51;;;;;;;7.90;4.82;;;22.90;99.90;;;;;;5049506;28;22016;-24
2023/08/25 08:32:19;;;;;;;6.93;4.90;;;22.90;99.90;;;;;;5034086;28;20690;-22
2023/08/25 08:34:49;;;;;;;6.85;4.82;;;22.90;99.90;;;;;;5052506;28;20217;-24
2023/08/25 08:37:16;;;;;;;9.38;5.82;;;22.90;99.90;;;;;;5049720;28;20219;-24
2023/08/25 08:39:44;;;;;;;7.25;4.90;;;23.00;99.90;;;;;;5061022;28;20227;-24
2023/08/25 08:42:13;;;;;;;7.10;5.57;;;23.00;99.90;;;;;;5054600;28;20734;-24
2023/08/25 08:44:49;;;;;;;8.13;5.32;;;23.00;99.90;;;;;;5050951;28;20281;-24
2023/08/25 08:47:17;;;;;;;7.85;5.72;;;23.00;99.90;;;;;;5064712;28;20207;-24
2023/08/25 08:49:45;;;;;;;9.20;5.95;;;23.00;99.90;;;;;;5060190;28;20207;-24
2023/08/25 08:52:12;;;;;;;8.77;5.55;;;23.00;99.90;;;;;;5063597;28;20273;-24
2023/08/25 08:54:41;;;;;;;6.85;4.93;;;23.00;99.90;;;;;;5066967;28;20253;-24
2023/08/25 08:57:12;;;;;;;6.93;5.13;;;23.00;99.90;;;;;;5055285;28;20713;-22
2023/08/25 08:59:42;;;;;;;5.38;4.78;;;23.00;99.90;;;;;;5067061;28;20211;-21
2023/08/25 09:02:13;;;;;;;7.82;4.80;;;23.00;99.90;;;;;;5050428;28;20299;-22
2023/08/25 09:04:46;;;;;;;5.93;4.25;;;23.10;99.90;;;;;;5062560;28;20204;-23
2023/08/25 09:07:17;;;;;;;5.07;4.40;;;23.10;99.90;;;;;;5061530;28;20214;-23
2023/08/25 09:09:47;;;;;;;7.22;4.75;;;23.10;99.90;;;;;;5053548;28;21217;-23
2023/08/25 09:12:18;;;;;;;7.55;4.30;;;23.10;99.90;;;;;;5049821;28;20557;-23
2023/08/25 09:14:47;;;;;;;6.30;4.47;;;23.20;99.90;;;;;;5064086;28;20204;-27
2023/08/25 09:17:15;;;;;;;5.15;4.65;;;23.20;99.90;;;;;;5053609;28;20261;-27
2023/08/25 09:19:45;;;;;;;8.10;4.65;;;23.20;99.90;;;;;;5038898;28;20203;-27
2023/08/25 09:22:18;;;;;;;14.85;6.30;;;23.20;99.90;;;;;;5040381;28;20228;-27
2023/08/25 09:24:50;;;;;;;10.57;5.20;;;23.30;99.90;;;;;;5044774;28;20204;-27
2023/08/25 09:27:26;;;;;;;7.22;5.40;;;23.30;99.90;;;;;;5051719;28;20221;-27
2023/08/25 09:29:59;;;;;;;5.95;5.25;;;23.30;99.90;;;;;;5064908;28;20212;-28
2023/08/25 09:32:28;;;;;;;6.80;5.10;;;23.30;99.90;;;;;;5061551;28;20214;-28
2023/08/25 09:35:11;;;;;;;6.80;5.35;;;23.30;99.90;;;;;;5059514;28;20199;-23
2023/08/25 09:37:43;;;;;;;12.48;6.20;;;23.30;99.90;;;;;;5055154;28;20771;-23
2023/08/25 09:40:14;;;;;;;8.38;5.35;;;23.30;99.90;;;;;;5038874;28;20666;-23
2023/08/25 09:42:44;;;;;;;7.35;5.80;;;23.30;99.90;;;;;;5047214;28;20682;-23
2023/08/25 09:45:14;;;;;;;8.88;5.95;;;23.30;99.90;;;;;;5038051;28;20258;-22
2023/08/25 09:47:42;;;;;;;6.63;5.35;;;23.30;99.90;;;;;;5062856;28;20701;-23
2023/08/25 09:50:15;;;;;;;8.02;5.70;;;23.30;99.90;;;;;;5067270;28;20204;-23
2023/08/25 09:52:44;;;;;;;5.78;5.18;;;23.30;99.90;;;;;;5066311;28;20579;-23
2023/08/25 09:55:18;;;;;;;7.88;5.63;;;23.30;99.90;;;;;;5061314;28;20211;-23
2023/08/25 09:57:48;;;;;;;7.75;5.78;;;23.30;99.90;;;;;;5047219;28;20229;-23
2023/08/25 10:00:16;;;;;;;7.18;5.53;;;23.30;99.90;;;;;;5055620;28;20214;-23
2023/08/25 10:02:46;;;;;;;7.85;5.28;;;23.30;99.90;;;;;;5059359;28;20585;-23
2023/08/25 10:05:17;;;;;;;5.95;5.18;;;23.40;99.90;;;;;;5064601;28;20207;-23
2023/08/25 10:07:45;;;;;;;6.50;5.03;;;23.40;99.90;;;;;;5049929;28;20215;-22
2023/08/25 10:10:13;;;;;;;6.10;5.18;;;23.40;99.90;;;;;;5040713;28;20673;-23
2023/08/25 10:12:42;;;;;;;5.55;4.85;;;23.40;99.90;;;;;;5048145;28;20211;-22
2023/08/25 10:15:16;;;;;;;5.10;4.30;;;23.40;99.90;;;;;;5052489;28;20246;-23
2023/08/25 10:17:46;;;;;;;5.30;4.45;;;23.40;99.90;;;;;;5065380;28;20219;-22
2023/08/25 10:20:23;;;;;;;5.60;4.65;;;23.40;99.90;;;;;;5063308;28;20688;-22
2023/08/25 10:22:55;;;;;;;5.15;4.50;;;23.40;99.90;;;;;;5043248;28;20216;-22
2023/08/25 10:25:28;;;;;;;4.88;4.38;;;23.50;99.90;;;;;;5047145;28;20207;-22
2023/08/25 10:28:02;;;;;;;4.65;4.10;;;23.50;99.90;;;;;;5044596;28;20199;-22
2023/08/25 10:30:30;;;;;;;5.10;4.53;;;23.50;99.90;;;;;;5061738;28;20208;-22
2023/08/25 10:33:09;;;;;;;8.82;4.38;;;23.50;99.90;;;;;;5033787;28;20232;-22
2023/08/25 10:35:46;;;;;;;5.30;3.75;;;23.50;99.90;;;;;;5061574;28;20298;-22
2023/08/25 10:38:19;;;;;;;6.00;4.47;;;23.50;99.90;;;;;;5064444;28;20281;-22
2023/08/25 10:40:56;;;;;;;12.57;5.72;;;23.50;99.90;;;;;;5046152;28;20220;-22
2023/08/25 10:43:33;;;;;;;8.70;5.10;;;23.60;99.90;;;;;;5029974;28;20250;-22
2023/08/25 10:46:03;;;;;;;5.35;4.55;;;23.60;99.90;;;;;;5034229;28;20242;-22
2023/08/25 10:48:33;;;;;;;4.65;4.03;;;23.60;99.90;;;;;;5048384;28;20216;-22
2023/08/25 10:51:14;;;;;;;5.70;4.72;;;23.60;99.90;;;;;;5054421;28;20717;-22
2023/08/25 10:53:44;;;;;;;5.95;5.03;;;23.60;99.90;;;;;;5030329;28;20670;-27
2023/08/25 10:56:21;;;;;;;5.20;4.80;;;23.60;99.90;;;;;;5031801;28;20581;-28
2023/08/25 10:59:05;;;;;;;5.60;5.10;;;23.60;99.90;;;;;;5063656;28;20304;-28
2023/08/25 11:01:38;;;;;;;7.60;5.88;;;23.60;99.90;;;;;;5055618;28;20203;-27
2023/08/25 11:04:12;;;;;;;7.35;6.65;;;23.60;99.90;;;;;;5053037;28;20196;-28
2023/08/25 11:06:43;;;;;;;10.48;7.25;;;23.60;99.90;;;;;;5043086;28;20216;-26
2023/08/25 11:09:35;;;;;;;8.35;7.50;;;23.70;99.90;;;;;;5048954;28;20245;-28
2023/08/25 11:12:08;;;;;;;8.93;8.13;;;23.70;99.90;;;;;;5066137;28;20568;-27
2023/08/25 11:14:42;;;;;;;9.57;8.68;;;23.80;99.90;;;;;;5033487;28;20749;-27
2023/08/25 11:17:10;;;;;;;10.63;9.63;;;23.80;99.90;;;;;;5031783;28;20241;-27
2023/08/25 11:19:42;;;;;;;11.02;9.95;;;23.90;99.90;;;;;;5047328;28;20505;-27
2023/08/25 11:22:10;;;;;;;12.57;11.30;;;24.00;99.90;;;;;;5056227;28;20210;-27
2023/08/25 11:24:38;;;;;;;11.98;10.77;;;24.00;99.90;;;;;;5052601;28;20197;-27
2023/08/25 11:27:09;;;;;;;13.25;11.98;;;24.20;99.90;;;;;;5057746;28;20220;-27
2023/08/25 11:29:39;;;;;;;13.45;12.10;;;24.30;99.90;;;;;;5047950;28;20204;-27
2023/08/25 11:32:12;;;;;;;13.70;12.40;;;24.30;99.90;;;;;;5048380;28;20200;-27
2023/08/25 11:34:45;;;;;;;14.77;13.38;;;24.30;99.90;;;;;;5046647;28;20691;-28
2023/08/25 11:37:15;;;;;;;14.48;13.00;;;24.40;99.90;;;;;;5040928;28;20223;-27
2023/08/25 11:39:46;;;;;;;13.98;12.65;;;24.40;99.90;;;;;;5061582;28;20217;-27
2023/08/25 11:42:18;;;;;;;12.20;10.82;;;24.40;99.90;;;;;;5058509;28;20220;-27
2023/08/25 11:44:45;;;;;;;14.25;12.80;;;24.50;99.90;;;;;;5050059;28;20537;-27
2023/08/25 11:47:13;;;;;;;13.27;11.95;;;24.50;99.90;;;;;;5037280;28;20209;-27
2023/08/25 11:49:45;;;;;;;15.20;13.63;;;24.50;99.90;;;;;;5044492;28;20204;-28
2023/08/25 11:52:15;;;;;;;14.88;13.38;;;24.60;99.90;;;;;;5074662;28;20222;-27
2023/08/25 11:54:52;;;;;;;13.88;12.57;;;24.60;99.90;;;;;;5086384;28;20206;-28
2023/08/25 11:57:35;;;;;;;13.95;12.65;;;24.60;99.90;;;;;;5025336;28;20602;-28
2023/08/25 12:00:07;;;;;;;15.25;13.85;;;24.60;99.90;;;;;;5040376;28;20208;-27
2023/08/25 12:02:39;;;;;;;15.35;13.98;;;24.60;99.90;;;;;;5037272;28;20204;-28
2023/08/25 12:05:09;;;;;;;16.00;14.40;;;24.60;99.90;;;;;;5065517;28;20191;-27
2023/08/25 12:07:41;;;;;;;14.73;13.15;;;24.60;99.90;;;;;;5045512;28;20215;-28
2023/08/25 12:10:09;;;;;;;14.70;13.23;;;24.70;99.90;;;;;;5066054;28;20755;-28
2023/08/25 12:12:41;;;;;;;18.38;16.42;;;24.70;99.90;;;;;;5047451;28;20306;-27
2023/08/25 12:15:08;;;;;;;18.13;16.33;;;24.80;99.90;;;;;;5063461;28;20239;-22
2023/08/25 12:17:39;;;;;;;16.67;15.00;;;24.80;99.90;;;;;;5057784;28;22935;-22
2023/08/25 12:20:13;;;;;;;17.40;15.73;;;24.80;99.90;;;;;;5059870;28;20203;-22
2023/08/25 12:23:04;;;;;;;16.63;14.70;;;24.80;99.90;;;;;;5064361;28;20238;-23
2023/08/25 12:25:35;;;;;;;17.73;15.90;;;24.80;99.90;;;;;;5045593;28;20208;-23
2023/08/25 12:28:05;;;;;;;17.67;15.85;;;24.80;99.90;;;;;;5056831;28;20617;-23
2023/08/25 12:30:32;;;;;;;17.85;16.10;;;24.80;99.90;;;;;;5047117;28;20298;-22
2023/08/25 12:32:59;;;;;;;17.95;16.17;;;24.90;99.90;;;;;;5043526;28;20204;-22
2023/08/25 12:35:29;;;;;;;23.48;16.58;;;24.90;99.90;;;;;;5064453;28;20256;-23
2023/08/25 12:37:58;;;;;;;18.45;14.30;;;24.80;99.90;;;;;;5019516;28;20235;-23
2023/08/25 12:40:28;;;;;;;16.83;14.60;;;24.90;99.90;;;;;;5069239;28;20256;-23
2023/08/25 12:43:00;;;;;;;18.80;14.02;;;24.90;99.90;;;;;;5057207;28;20816;-23
2023/08/25 12:45:29;;;;;;;15.57;13.13;;;24.90;99.90;;;;;;5050833;28;20849;-23
2023/08/25 12:48:02;;;;;;;16.05;14.35;;;24.90;99.90;;;;;;5015677;28;20200;-23
2023/08/25 12:50:31;;;;;;;17.58;13.95;;;25.00;99.90;;;;;;5048457;28;20206;-23
2023/08/25 12:52:59;;;;;;;15.05;13.35;;;25.00;99.90;;;;;;5064590;28;20208;-23
2023/08/25 12:55:26;;;;;;;15.48;13.40;;;25.00;99.90;;;;;;5056174;28;20220;-23
2023/08/25 12:57:55;;;;;;;16.20;14.40;;;25.00;99.90;;;;;;5062113;28;20251;-23